Time;durP1;ratioP1;P1;durP2;ratioP2;P2;SDS_P1;SDS_P2;PMS_P1;PMS_P2;Temp;Humidity;BMP_temperature;BMP_pressure;BME280_temperature;BME280_humidity;BME280_pressure;Samples;Min_cycle;Max_cycle;Signal;HPM_P1;HPM_P2
2022/08/12 00:44:43;;;;;;;2.22;1.95;;;19.00;70.80;;;;;;4937362;29;20098;-51
2022/08/12 00:47:10;;;;;;;4.47;2.70;;;19.00;70.70;;;;;;4936166;29;20055;-47
2022/08/12 00:49:37;;;;;;;8.57;2.60;;;18.90;71.30;;;;;;4936041;29;20082;-51
2022/08/12 00:52:05;;;;;;;3.85;2.33;;;18.90;71.00;;;;;;4936778;29;20122;-49
2022/08/12 00:54:33;;;;;;;12.65;2.45;;;18.90;71.20;;;;;;4951432;28;20075;-48
2022/08/12 00:57:09;;;;;;;4.15;2.30;;;18.90;71.30;;;;;;4951589;28;20020;-48
2022/08/12 00:59:41;;;;;;;3.58;2.65;;;18.80;71.10;;;;;;4936462;29;20038;-50
2022/08/12 01:02:08;;;;;;;5.22;2.53;;;18.80;71.10;;;;;;4936617;29;20075;-49
2022/08/12 01:12:51;;;;;;;2.20;2.00;;;18.60;72.20;;;;;;4936651;29;20074;-53
2022/08/12 01:15:18;;;;;;;2.90;2.17;;;18.70;72.20;;;;;;4936334;29;20035;-53
2022/08/12 01:17:45;;;;;;;5.28;2.60;;;18.60;72.30;;;;;;4935533;29;20043;-47
2022/08/12 01:20:19;;;;;;;3.35;2.33;;;18.60;72.90;;;;;;4936555;29;20047;-47
2022/08/12 01:23:09;;;;;;;2.83;2.33;;;18.40;73.30;;;;;;4951906;28;20087;-47
2022/08/12 01:25:39;;;;;;;6.55;2.40;;;18.50;73.30;;;;;;4950977;28;20118;-46
2022/08/12 01:28:09;;;;;;;3.63;2.50;;;18.50;73.30;;;;;;4950925;28;20031;-49
2022/08/12 01:30:38;;;;;;;3.17;2.50;;;18.40;73.80;;;;;;4951268;28;20032;-48
2022/08/12 01:33:05;;;;;;;3.60;2.67;;;18.40;73.60;;;;;;4950916;28;20118;-48
2022/08/12 01:35:33;;;;;;;2.95;2.65;;;18.40;73.90;;;;;;4934944;29;20032;-47
2022/08/12 01:38:01;;;;;;;5.70;2.63;;;18.30;74.30;;;;;;4951133;28;20027;-47
2022/08/12 01:40:32;;;;;;;5.35;2.40;;;18.30;74.80;;;;;;4950944;29;20098;-47
2022/08/12 01:43:04;;;;;;;3.58;2.58;;;18.20;74.50;;;;;;4950909;28;20020;-47
2022/08/12 01:45:31;;;;;;;4.97;3.05;;;18.10;74.80;;;;;;4936206;29;20032;-47
2022/08/12 01:48:14;;;;;;;4.40;2.92;;;18.10;73.80;;;;;;4936340;29;20094;-47
2022/08/12 01:51:01;;;;;;;6.43;3.05;;;17.90;74.40;;;;;;4936082;29;20570;-46
2022/08/12 01:53:45;;;;;;;6.03;2.55;;;17.90;74.50;;;;;;4935960;29;20020;-47
2022/08/12 01:56:13;;;;;;;3.60;2.80;;;17.80;75.60;;;;;;4950623;28;20055;-47
2022/08/12 02:01:33;;;;;;;4.95;2.50;;;17.70;76.40;;;;;;4938689;29;20078;-46
2022/08/12 02:11:15;;;;;;;4.88;3.15;;;17.90;77.40;;;;;;4939624;29;20562;-47
2022/08/12 02:14:18;;;;;;;3.05;2.40;;;17.90;77.70;;;;;;4928885;29;20483;-47
2022/08/12 02:16:55;;;;;;;4.95;3.13;;;17.80;78.60;;;;;;4939431;29;20031;-50
2022/08/12 02:19:42;;;;;;;4.55;2.50;;;17.90;78.30;;;;;;4939353;29;20114;-48
2022/08/12 02:22:30;;;;;;;3.70;2.35;;;17.70;78.00;;;;;;4939594;29;20102;-46
2022/08/12 02:25:36;;;;;;;4.43;2.80;;;17.60;78.30;;;;;;4939279;29;20031;-47
2022/08/12 02:28:03;;;;;;;4.90;2.88;;;17.60;78.90;;;;;;4938126;29;20115;-48
2022/08/12 02:30:32;;;;;;;4.93;2.55;;;17.50;79.40;;;;;;4939126;29;20479;-48
2022/08/12 02:33:00;;;;;;;3.80;2.50;;;17.50;79.90;;;;;;4938166;29;20031;-50
2022/08/12 02:35:28;;;;;;;3.13;2.60;;;17.50;79.90;;;;;;4939092;29;20423;-48
2022/08/12 02:37:56;;;;;;;5.70;3.17;;;17.50;79.80;;;;;;4938953;29;20028;-49
2022/08/12 02:40:24;;;;;;;5.10;2.83;;;17.50;79.80;;;;;;4953513;28;20039;-52
2022/08/12 02:43:13;;;;;;;4.35;2.90;;;17.40;80.10;;;;;;4954445;28;20028;-52
2022/08/12 02:45:52;;;;;;;3.80;2.60;;;17.30;80.60;;;;;;4939086;29;20032;-49
2022/08/12 02:48:34;;;;;;;6.68;3.33;;;17.30;80.40;;;;;;4938782;29;20483;-51
2022/08/12 02:51:03;;;;;;;;;;;17.20;81.00;;;;;;4953908;28;20032;-52
2022/08/12 02:53:30;;;;;;;6.10;2.50;;;17.10;81.60;;;;;;4953449;28;19912;-50
2022/08/12 02:56:01;;;;;;;3.30;2.80;;;17.10;82.60;;;;;;4938671;29;20093;-49
2022/08/12 02:58:27;;;;;;;4.72;2.60;;;17.10;82.70;;;;;;4938802;29;20156;-50
2022/08/12 03:00:53;;;;;;;12.07;5.15;;;17.20;82.90;;;;;;4953339;28;20032;-50
2022/08/12 03:03:21;;;;;;;7.80;3.58;;;17.20;82.40;;;;;;4938762;29;20035;-47
2022/08/12 03:05:53;;;;;;;3.92;2.90;;;17.10;82.90;;;;;;4953504;28;20530;-49
2022/08/12 03:08:22;;;;;;;;;;;17.00;83.10;;;;;;4937613;29;20028;-47
2022/08/12 03:10:53;;;;;;;17.95;8.35;;;17.00;83.40;;;;;;4953105;28;19922;-46
2022/08/12 03:13:24;;;;;;;3.60;3.10;;;16.80;83.80;;;;;;4953186;28;20030;-47
2022/08/12 03:15:54;;;;;;;4.53;2.88;;;16.80;84.50;;;;;;4937102;29;20043;-49
2022/08/12 03:18:30;;;;;;;4.68;2.63;;;16.80;84.50;;;;;;4938253;29;20033;-47
2022/08/12 03:20:57;;;;;;;7.40;3.42;;;16.80;85.30;;;;;;4953899;28;20028;-48
2022/08/12 03:23:24;;;;;;;7.85;3.88;;;16.80;85.40;;;;;;4952853;28;20059;-50
2022/08/12 03:25:52;;;;;;;9.07;4.28;;;16.80;85.80;;;;;;4953191;28;20030;-49
2022/08/12 03:31:04;;;;;;;6.32;3.83;;;16.70;86.40;;;;;;4938556;29;20099;-48
2022/08/12 03:33:35;;;;;;;3.90;3.30;;;16.70;87.60;;;;;;4938192;29;20019;-47
2022/08/12 03:36:02;;;;;;;4.47;3.10;;;16.60;87.70;;;;;;4953516;28;20088;-50
2022/08/12 03:38:31;;;;;;;8.68;3.30;;;16.60;88.40;;;;;;4952571;28;20146;-48
2022/08/12 04:01:05;;;;;;;5.07;3.35;;;16.50;90.40;;;;;;4937996;29;20034;-49
2022/08/12 04:06:21;;;;;;;4.18;3.38;;;16.40;91.50;;;;;;4937911;29;20403;-47
2022/08/12 04:08:49;;;;;;;7.53;3.63;;;16.30;91.60;;;;;;4952395;29;20055;-48
2022/08/12 04:14:11;;;;;;;4.95;3.00;;;16.30;91.90;;;;;;4937760;29;20079;-47
2022/08/12 04:16:38;;;;;;;7.38;3.80;;;16.40;91.90;;;;;;4952020;28;20024;-47
2022/08/12 04:19:04;;;;;;;8.27;4.05;;;16.40;92.10;;;;;;4951847;28;20041;-51
2022/08/12 04:21:31;;;;;;;4.43;3.35;;;16.30;92.00;;;;;;4952628;28;20024;-50
2022/08/12 04:23:58;;;;;;;12.57;3.60;;;16.20;92.40;;;;;;4936946;29;20074;-52
2022/08/12 04:26:24;;;;;;;8.20;3.33;;;16.10;92.40;;;;;;4937303;29;20032;-47
2022/08/12 04:28:50;;;;;;;5.93;3.50;;;16.10;92.50;;;;;;4936867;29;20024;-47
2022/08/12 04:31:16;;;;;;;5.05;3.63;;;16.10;93.20;;;;;;4936828;29;20028;-47
2022/08/12 04:33:42;;;;;;;3.63;3.08;;;16.30;92.90;;;;;;4936805;29;20031;-48
2022/08/12 04:36:08;;;;;;;6.47;2.78;;;16.40;93.00;;;;;;4936762;29;20055;-48
2022/08/12 04:38:35;;;;;;;4.35;3.47;;;16.60;92.70;;;;;;4936980;29;20035;-48
2022/08/12 04:41:03;;;;;;;16.20;3.70;;;16.90;92.70;;;;;;4951519;28;20031;-49
2022/08/12 04:43:28;;;;;;;20.08;3.70;;;17.10;92.20;;;;;;4936705;29;20028;-46
2022/08/12 04:45:55;;;;;;;10.68;3.67;;;17.40;91.70;;;;;;4936625;29;20034;-47
2022/08/12 04:48:21;;;;;;;8.18;3.40;;;17.70;91.40;;;;;;4951475;28;20079;-54
2022/08/12 04:50:47;;;;;;;6.45;3.30;;;18.00;90.80;;;;;;4936638;29;20423;-50
2022/08/12 04:53:12;;;;;;;8.70;3.33;;;18.40;90.30;;;;;;4951335;28;20035;-50
2022/08/12 04:55:39;;;;;;;7.68;3.03;;;18.70;89.70;;;;;;4951228;28;20024;-48
2022/08/12 04:58:06;;;;;;;6.93;3.20;;;19.00;88.00;;;;;;4936862;29;20102;-53
2022/08/12 05:00:34;;;;;;;14.57;3.22;;;19.10;86.80;;;;;;4935689;29;20052;-48
2022/08/12 05:02:59;;;;;;;5.20;3.25;;;19.50;85.80;;;;;;4936491;29;20020;-50
2022/08/12 05:05:25;;;;;;;8.10;3.55;;;20.00;84.10;;;;;;4936356;29;20034;-47
2022/08/12 05:07:52;;;;;;;8.48;3.20;;;20.40;83.00;;;;;;4936406;29;20112;-51
2022/08/12 05:10:20;;;;;;;4.97;3.28;;;20.50;81.50;;;;;;4951116;28;20034;-49
2022/08/12 05:12:53;;;;;;;4.05;3.05;;;20.70;81.40;;;;;;4951170;28;20024;-50
2022/08/12 05:15:19;;;;;;;5.60;3.40;;;20.90;80.90;;;;;;4935071;29;20111;-52
2022/08/12 05:17:44;;;;;;;5.68;3.22;;;21.30;79.10;;;;;;4936527;29;20115;-52
2022/08/12 05:20:14;;;;;;;4.82;2.88;;;21.60;78.40;;;;;;4936170;29;20039;-52
2022/08/12 05:22:43;;;;;;;5.13;2.85;;;22.00;77.10;;;;;;4936623;29;20020;-51
2022/08/12 05:25:10;;;;;;;7.25;3.28;;;22.50;76.20;;;;;;4951274;28;20107;-48
2022/08/12 05:27:39;;;;;;;4.68;2.78;;;22.80;74.60;;;;;;4936204;29;20027;-52
2022/08/12 05:30:06;;;;;;;4.72;2.70;;;23.20;74.40;;;;;;4935074;29;20028;-49
2022/08/12 05:32:32;;;;;;;7.82;3.22;;;23.70;74.00;;;;;;4950847;28;20024;-54
2022/08/12 05:34:58;;;;;;;8.40;3.20;;;24.20;71.60;;;;;;4951568;28;20058;-52
2022/08/12 05:37:24;;;;;;;6.18;2.80;;;24.70;69.50;;;;;;4941832;29;20019;-51
2022/08/12 05:39:49;;;;;;;5.57;3.40;;;25.00;69.10;;;;;;4957109;28;20020;-52
2022/08/12 05:42:17;;;;;;;4.45;2.40;;;25.40;67.30;;;;;;4941193;29;20092;-51
2022/08/12 05:44:42;;;;;;;4.15;2.92;;;25.60;67.90;;;;;;4957107;28;20078;-53
2022/08/12 05:47:08;;;;;;;9.00;3.40;;;26.10;66.70;;;;;;4957363;28;20032;-55
2022/08/12 05:49:35;;;;;;;10.15;3.72;;;26.40;65.70;;;;;;4942347;29;20028;-50
2022/08/12 05:52:01;;;;;;;10.68;3.05;;;26.80;65.20;;;;;;4957387;28;20036;-52
2022/08/12 05:54:27;;;;;;;9.02;3.03;;;27.10;63.20;;;;;;4957143;28;20028;-51
2022/08/12 05:56:52;;;;;;;5.18;2.95;;;27.60;61.30;;;;;;4957973;28;20027;-53
2022/08/12 05:59:20;;;;;;;4.30;2.97;;;28.00;61.00;;;;;;4941740;29;20123;-51
2022/08/12 06:01:46;;;;;;;4.03;2.85;;;28.40;60.10;;;;;;4957042;28;20024;-55
2022/08/12 06:04:13;;;;;;;4.93;3.83;;;28.70;60.00;;;;;;4957138;28;20034;-51
2022/08/12 06:06:40;;;;;;;5.40;3.10;;;29.00;58.60;;;;;;4942322;29;20110;-53
2022/08/12 06:09:09;;;;;;;3.60;2.83;;;29.40;58.10;;;;;;4942092;29;20439;-57
2022/08/12 06:11:36;;;;;;;5.82;2.75;;;29.70;58.10;;;;;;4956915;28;20047;-55
2022/08/12 06:14:02;;;;;;;4.20;2.83;;;29.90;57.90;;;;;;4942147;29;20016;-57
2022/08/12 06:16:31;;;;;;;5.45;2.92;;;30.20;57.10;;;;;;4942424;29;20031;-55
2022/08/12 06:18:57;;;;;;;4.20;2.88;;;30.80;55.60;;;;;;4942059;29;20047;-58
2022/08/12 06:21:23;;;;;;;5.53;3.08;;;31.10;55.30;;;;;;4941163;29;20479;-58
2022/08/12 06:23:50;;;;;;;6.20;3.00;;;31.60;55.50;;;;;;4956884;28;20042;-56
2022/08/12 06:26:19;;;;;;;6.30;2.80;;;32.20;53.90;;;;;;4957075;28;20030;-58
2022/08/12 06:28:47;;;;;;;4.70;3.08;;;32.60;54.00;;;;;;4941873;29;20034;-54
2022/08/12 06:31:15;;;;;;;3.40;2.47;;;32.60;52.60;;;;;;4942344;29;20043;-52
2022/08/12 06:33:43;;;;;;;11.70;2.80;;;32.80;53.40;;;;;;4942014;29;20020;-56
2022/08/12 06:36:13;;;;;;;4.20;2.78;;;33.50;53.00;;;;;;4957483;28;20434;-55
2022/08/12 06:38:40;;;;;;;4.70;3.33;;;33.80;52.20;;;;;;4956641;28;20035;-57
2022/08/12 06:44:40;;;;;;;5.57;3.25;;;34.10;50.70;;;;;;4942448;29;20043;-52
2022/08/12 06:47:06;;;;;;;7.00;3.28;;;34.80;49.20;;;;;;4939531;29;20115;-54
2022/08/12 06:49:35;;;;;;;9.43;3.03;;;35.30;48.90;;;;;;4953661;28;20112;-55
2022/08/12 06:52:03;;;;;;;5.47;2.77;;;35.60;48.40;;;;;;4939607;29;20091;-52
2022/08/12 06:54:29;;;;;;;6.55;2.92;;;35.90;48.50;;;;;;4953555;28;20028;-50
2022/08/12 06:56:55;;;;;;;9.57;3.25;;;36.20;47.60;;;;;;4938754;29;20015;-55
2022/08/12 06:59:21;;;;;;;3.55;2.83;;;36.50;46.70;;;;;;4938601;29;20070;-54
2022/08/12 07:01:47;;;;;;;4.20;2.72;;;36.60;46.60;;;;;;4953769;28;20062;-51
2022/08/12 07:04:14;;;;;;;4.65;2.83;;;37.10;47.10;;;;;;4954123;28;20034;-53
2022/08/12 07:06:40;;;;;;;9.48;3.13;;;37.20;45.10;;;;;;4938499;29;20027;-54
2022/08/12 07:09:06;;;;;;;6.47;2.80;;;37.50;46.30;;;;;;4938629;29;20028;-51
2022/08/12 07:11:33;;;;;;;4.25;2.70;;;38.20;45.70;;;;;;4953184;28;20027;-52
2022/08/12 07:14:03;;;;;;;3.97;2.85;;;38.80;44.60;;;;;;4937187;29;20024;-55
2022/08/12 07:19:13;;;;;;;9.43;3.15;;;39.30;43.70;;;;;;4938768;29;20054;-54
2022/08/12 07:21:38;;;;;;;10.43;3.30;;;39.70;43.60;;;;;;4937053;29;20395;-54
2022/08/12 07:24:04;;;;;;;3.15;2.30;;;39.90;43.10;;;;;;4938233;29;20031;-53
2022/08/12 07:26:30;;;;;;;7.93;2.90;;;40.20;43.40;;;;;;4952929;28;20030;-56
2022/08/12 07:28:55;;;;;;;8.57;2.97;;;39.20;42.90;;;;;;4953042;28;20024;-56
2022/08/12 07:31:21;;;;;;;7.95;3.00;;;39.00;43.30;;;;;;4937339;29;20026;-56
2022/08/12 07:33:48;;;;;;;9.93;2.75;;;39.10;44.40;;;;;;4938214;29;20026;-56
2022/08/12 07:36:14;;;;;;;8.90;2.70;;;39.90;42.90;;;;;;4938553;29;20019;-53
2022/08/12 07:38:43;;;;;;;7.50;2.80;;;39.90;43.20;;;;;;4938209;29;20051;-53
2022/08/12 07:41:21;;;;;;;8.95;3.17;;;40.70;42.00;;;;;;4952719;28;20059;-54
2022/08/12 07:44:06;;;;;;;10.68;3.17;;;41.00;41.40;;;;;;4938237;29;20028;-54
2022/08/12 07:46:35;;;;;;;4.13;2.70;;;41.60;41.20;;;;;;4937897;29;20059;-54
2022/08/12 07:49:04;;;;;;;8.53;2.77;;;42.00;40.40;;;;;;4952524;28;20119;-55
2022/08/12 07:51:31;;;;;;;7.50;3.03;;;42.50;40.60;;;;;;4937587;29;20024;-55
2022/08/12 07:53:58;;;;;;;13.85;3.15;;;42.60;40.10;;;;;;4952564;28;20024;-54
2022/08/12 07:56:24;;;;;;;11.27;3.05;;;42.70;41.00;;;;;;4952355;28;20086;-55
2022/08/12 07:58:50;;;;;;;5.93;2.65;;;43.20;40.60;;;;;;4952469;28;20596;-56
2022/08/12 08:01:20;;;;;;;8.50;2.80;;;43.70;39.60;;;;;;4937862;29;20028;-55
2022/08/12 08:06:32;;;;;;;5.55;2.60;;;43.60;39.00;;;;;;4937965;29;20058;-57
2022/08/12 08:08:59;;;;;;;5.20;2.80;;;44.40;38.60;;;;;;4952564;28;20019;-55
2022/08/12 08:14:10;;;;;;;11.40;2.95;;;44.70;37.30;;;;;;4937873;29;20027;-53
2022/08/12 08:16:38;;;;;;;12.38;2.75;;;44.70;37.70;;;;;;4937564;29;20087;-56
2022/08/12 08:19:04;;;;;;;4.40;2.60;;;45.50;36.90;;;;;;4951910;28;20024;-57
2022/08/12 08:21:31;;;;;;;11.57;2.70;;;44.20;36.40;;;;;;4937480;29;20102;-55
2022/08/12 08:24:16;;;;;;;4.22;2.42;;;43.60;37.60;;;;;;4937400;29;20468;-56
2022/08/12 08:26:48;;;;;;;2.80;2.45;;;43.70;37.30;;;;;;4937418;29;20028;-58
2022/08/12 08:29:15;;;;;;;6.72;2.42;;;44.10;36.40;;;;;;4951959;28;20501;-57
2022/08/12 08:31:45;;;;;;;4.15;1.90;;;43.00;37.00;;;;;;4951956;28;20020;-55
2022/08/12 08:34:14;;;;;;;4.53;1.73;;;42.50;36.40;;;;;;4951737;28;20490;-58
2022/08/12 08:36:41;;;;;;;4.22;1.60;;;41.20;37.20;;;;;;4951703;28;20042;-57
2022/08/12 08:39:07;;;;;;;1.70;1.58;;;40.40;37.20;;;;;;4935646;29;20144;-57
2022/08/12 08:44:17;;;;;;;12.30;1.85;;;39.60;38.50;;;;;;4936874;29;20030;-55
2022/08/12 08:46:43;;;;;;;3.28;2.55;;;40.40;38.20;;;;;;4936827;29;20023;-58
2022/08/12 08:49:10;;;;;;;2.05;1.85;;;42.10;36.90;;;;;;4951299;28;20035;-56
2022/08/12 08:51:37;;;;;;;2.65;2.10;;;42.60;37.30;;;;;;4936555;29;20036;-57
2022/08/12 08:54:05;;;;;;;1.63;1.52;;;41.60;36.50;;;;;;4951632;28;20114;-54
2022/08/12 08:56:31;;;;;;;1.50;1.40;;;40.10;37.70;;;;;;4936585;29;20103;-57
2022/08/12 08:58:57;;;;;;;2.78;1.65;;;38.50;37.90;;;;;;4951300;28;20020;-56
2022/08/12 09:01:23;;;;;;;3.03;1.90;;;38.80;38.00;;;;;;4936801;29;20103;-57
2022/08/12 09:03:49;;;;;;;2.55;1.73;;;39.70;37.90;;;;;;4936456;29;20102;-57
2022/08/12 09:06:15;;;;;;;7.95;2.30;;;39.50;36.80;;;;;;4936435;29;20027;-57
2022/08/12 09:08:41;;;;;;;2.38;1.60;;;39.40;37.50;;;;;;4936655;29;20034;-57
2022/08/12 09:13:51;;;;;;;3.70;1.85;;;39.50;37.00;;;;;;4936388;29;20163;-57
2022/08/12 09:16:17;;;;;;;2.83;1.45;;;39.30;37.70;;;;;;4936312;29;20103;-57
2022/08/12 09:18:43;;;;;;;1.48;1.38;;;37.40;38.30;;;;;;4936478;29;20027;-57
2022/08/12 09:21:09;;;;;;;3.33;1.60;;;36.90;38.80;;;;;;4936296;29;20402;-56
2022/08/12 09:23:35;;;;;;;3.92;1.50;;;37.20;38.70;;;;;;4951049;28;20028;-57
2022/08/12 09:26:01;;;;;;;9.70;1.52;;;37.40;38.10;;;;;;4936336;29;20028;-56
2022/08/12 09:28:27;;;;;;;3.25;1.70;;;37.20;38.60;;;;;;4951868;28;20030;-57
2022/08/12 09:30:56;;;;;;;5.95;1.30;;;36.80;39.00;;;;;;4936230;29;20028;-55
2022/08/12 09:33:23;;;;;;;4.97;1.73;;;35.40;39.50;;;;;;4951033;28;20463;-57
2022/08/12 09:35:49;;;;;;;3.50;1.55;;;35.20;39.40;;;;;;4951260;28;20036;-57
2022/08/12 09:38:16;;;;;;;4.28;1.50;;;35.40;39.40;;;;;;4951714;28;20086;-56
2022/08/12 09:40:42;;;;;;;2.58;1.60;;;34.70;39.60;;;;;;4936085;29;20028;-55
2022/08/12 09:45:53;;;;;;;6.65;1.98;;;35.80;39.60;;;;;;4936645;29;20123;-55
2022/08/12 09:48:18;;;;;;;2.05;1.58;;;35.30;38.80;;;;;;4950859;28;20059;-57
2022/08/12 09:50:46;;;;;;;5.05;2.15;;;36.20;39.20;;;;;;4950526;28;20075;-56
2022/08/12 09:53:15;;;;;;;7.10;2.72;;;36.60;38.10;;;;;;4950619;28;20027;-57
2022/08/12 09:55:46;;;;;;;4.60;1.65;;;36.30;37.70;;;;;;4935916;29;20034;-55
2022/08/12 09:58:15;;;;;;;3.85;1.92;;;36.00;38.00;;;;;;4950743;28;20024;-57
2022/08/12 10:00:45;;;;;;;4.13;1.83;;;35.80;38.70;;;;;;4950822;28;20024;-55
2022/08/12 10:03:13;;;;;;;3.53;1.70;;;35.90;38.20;;;;;;4936487;29;20028;-57
2022/08/12 10:05:44;;;;;;;2.60;1.95;;;35.90;38.90;;;;;;4950598;28;20058;-57
2022/08/12 10:08:12;;;;;;;6.80;2.42;;;35.70;39.40;;;;;;4935901;29;20511;-56
2022/08/12 10:13:42;;;;;;;5.43;1.90;;;35.70;38.00;;;;;;4935877;29;20027;-57
2022/08/12 10:16:21;;;;;;;7.72;1.67;;;35.50;38.50;;;;;;4935943;29;20046;-56
2022/08/12 10:18:54;;;;;;;5.63;1.88;;;36.20;38.30;;;;;;4934392;29;20035;-57
2022/08/12 10:21:23;;;;;;;4.05;1.75;;;36.20;38.30;;;;;;4936279;29;20079;-57
2022/08/12 10:23:50;;;;;;;3.88;1.73;;;36.00;38.60;;;;;;4954210;28;20027;-56
2022/08/12 10:31:50;;;;;;;2.95;1.40;;;34.40;39.60;;;;;;4939663;29;20083;-56
2022/08/12 10:34:18;;;;;;;5.55;1.65;;;34.70;39.90;;;;;;4937969;29;20027;-55
2022/08/12 10:36:44;;;;;;;2.72;1.20;;;32.90;41.30;;;;;;4939116;29;20030;-56
2022/08/12 10:39:17;;;;;;;2.10;1.38;;;32.90;41.90;;;;;;4939061;29;20023;-54
2022/08/12 10:44:28;;;;;;;4.90;1.80;;;32.50;41.60;;;;;;4939360;29;20030;-56
2022/08/12 10:46:54;;;;;;;6.20;1.63;;;32.10;43.40;;;;;;4953952;28;20024;-55
2022/08/12 10:49:43;;;;;;;2.60;1.60;;;32.00;42.50;;;;;;4953517;28;20028;-55
2022/08/12 10:52:07;;;;;;;7.10;1.67;;;31.20;43.30;;;;;;4939114;28;20068;-54
2022/08/12 10:54:33;;;;;;;3.33;1.73;;;30.80;43.20;;;;;;4937609;29;20024;-57
2022/08/12 10:56:59;;;;;;;3.70;1.58;;;29.80;44.40;;;;;;4953626;28;20077;-58
2022/08/12 10:59:28;;;;;;;1.65;1.55;;;30.10;44.70;;;;;;4938669;29;20028;-57
2022/08/12 11:01:55;;;;;;;3.15;1.55;;;30.30;44.20;;;;;;4953956;28;20114;-57
2022/08/12 11:04:22;;;;;;;3.47;1.98;;;30.30;44.20;;;;;;4953294;28;20024;-56
2022/08/12 11:06:49;;;;;;;2.10;1.38;;;29.70;44.50;;;;;;4938580;29;20051;-55
2022/08/12 11:09:30;;;;;;;3.47;1.92;;;29.50;45.50;;;;;;4953469;28;20031;-58
2022/08/12 11:11:59;;;;;;;9.05;1.63;;;29.40;45.60;;;;;;4953364;28;20487;-57
2022/08/12 11:14:30;;;;;;;6.28;1.48;;;29.40;45.00;;;;;;4953103;28;20426;-57
2022/08/12 11:17:00;;;;;;;4.15;1.52;;;29.40;46.00;;;;;;4938433;29;20020;-57
2022/08/12 11:19:30;;;;;;;3.30;1.10;;;29.50;46.20;;;;;;4953186;28;20086;-58
2022/08/12 11:21:56;;;;;;;2.83;1.63;;;29.40;45.90;;;;;;4953180;28;20059;-55
2022/08/12 11:24:23;;;;;;;11.43;2.05;;;29.20;46.20;;;;;;4952979;28;20038;-53
2022/08/12 11:26:49;;;;;;;3.50;1.30;;;29.00;46.90;;;;;;4939000;29;20224;-56
2022/08/12 11:29:16;;;;;;;1.95;1.48;;;28.70;46.70;;;;;;4938195;29;20046;-58
2022/08/12 11:31:42;;;;;;;2.13;1.70;;;28.70;47.10;;;;;;4938406;29;20024;-54
2022/08/12 11:34:08;;;;;;;3.65;1.42;;;28.80;47.30;;;;;;4952214;28;20554;-58
2022/08/12 11:36:33;;;;;;;2.30;1.60;;;28.80;47.10;;;;;;4953523;28;20229;-58
2022/08/12 11:38:59;;;;;;;5.18;1.75;;;28.90;47.40;;;;;;4953003;28;20420;-56
2022/08/12 11:41:25;;;;;;;2.65;1.25;;;28.70;47.20;;;;;;4937057;29;20083;-57
2022/08/12 11:43:50;;;;;;;4.43;1.55;;;28.70;47.30;;;;;;4937887;29;20107;-58
2022/08/12 11:46:17;;;;;;;5.00;1.50;;;28.60;47.90;;;;;;4952987;28;20032;-56
2022/08/12 11:48:43;;;;;;;4.60;1.27;;;28.50;46.80;;;;;;4952804;28;20062;-58
2022/08/12 11:51:09;;;;;;;3.78;1.48;;;28.60;47.90;;;;;;4952420;28;20067;-58
2022/08/12 11:53:35;;;;;;;4.22;1.70;;;28.70;46.90;;;;;;4936656;29;20043;-56
2022/08/12 11:56:03;;;;;;;4.28;1.50;;;28.90;47.00;;;;;;4953108;28;20020;-58
2022/08/12 11:58:29;;;;;;;3.38;1.30;;;28.90;46.70;;;;;;4952710;28;20119;-55
2022/08/12 12:00:55;;;;;;;2.63;1.27;;;28.90;46.50;;;;;;4952380;28;20116;-55
2022/08/12 12:03:20;;;;;;;2.65;1.65;;;28.80;46.60;;;;;;4952199;28;20035;-56
2022/08/12 12:05:46;;;;;;;4.22;1.60;;;28.90;47.50;;;;;;4952506;28;20067;-58
2022/08/12 12:08:26;;;;;;;5.47;1.40;;;28.80;47.00;;;;;;4952242;28;20031;-58
2022/08/12 12:10:52;;;;;;;2.55;1.35;;;28.80;46.50;;;;;;4937581;29;20510;-56
2022/08/12 12:13:19;;;;;;;4.55;1.50;;;29.00;46.60;;;;;;4952148;28;20027;-57
2022/08/12 12:15:46;;;;;;;2.60;1.35;;;29.00;46.50;;;;;;4952446;28;20487;-52
2022/08/12 12:18:26;;;;;;;1.88;1.50;;;29.00;46.80;;;;;;4937927;29;20082;-58
2022/08/12 12:20:53;;;;;;;3.17;1.50;;;28.90;46.60;;;;;;4952644;28;20031;-52
2022/08/12 12:23:19;;;;;;;2.05;1.38;;;28.90;46.50;;;;;;4936021;29;20035;-54
2022/08/12 12:25:45;;;;;;;10.63;1.75;;;28.80;46.40;;;;;;4937147;29;20031;-52
2022/08/12 12:28:12;;;;;;;7.15;1.83;;;28.80;46.70;;;;;;4937078;29;20034;-53
2022/08/12 12:30:38;;;;;;;9.45;1.83;;;28.70;46.10;;;;;;4952293;28;20118;-56
2022/08/12 12:33:05;;;;;;;5.63;1.75;;;28.70;46.40;;;;;;4937661;29;20023;-58
2022/08/12 12:35:32;;;;;;;4.78;1.50;;;28.80;46.70;;;;;;4952894;28;20024;-57
2022/08/12 12:38:00;;;;;;;2.63;1.80;;;28.90;46.40;;;;;;4953131;28;20114;-57
2022/08/12 12:40:27;;;;;;;2.55;1.60;;;28.90;46.70;;;;;;4952845;28;20435;-52
2022/08/12 12:42:53;;;;;;;3.35;1.52;;;28.80;46.90;;;;;;4952485;28;20059;-56
2022/08/12 12:45:19;;;;;;;5.28;1.30;;;28.80;46.90;;;;;;4937011;29;20095;-56
2022/08/12 12:48:07;;;;;;;6.20;1.83;;;28.90;47.30;;;;;;4952283;28;20123;-55
2022/08/12 12:50:38;;;;;;;3.50;1.60;;;28.90;47.30;;;;;;4937497;29;20036;-55
2022/08/12 12:53:05;;;;;;;2.78;1.67;;;28.80;47.40;;;;;;4937760;29;20038;-58
2022/08/12 12:55:34;;;;;;;6.20;2.10;;;28.80;47.20;;;;;;4937563;29;20095;-54
2022/08/12 12:58:08;;;;;;;6.63;2.33;;;28.80;47.50;;;;;;4952285;28;20102;-53
2022/08/12 13:00:35;;;;;;;7.18;1.80;;;28.70;47.70;;;;;;4935791;29;20028;-49
2022/08/12 13:03:00;;;;;;;5.88;1.70;;;28.70;47.00;;;;;;4936748;29;20027;-55
2022/08/12 13:05:34;;;;;;;6.53;1.60;;;28.60;47.20;;;;;;4936545;29;20035;-53
2022/08/12 13:08:02;;;;;;;3.28;1.50;;;28.60;47.40;;;;;;4937040;29;20051;-57
2022/08/12 13:10:30;;;;;;;2.95;1.50;;;28.80;46.90;;;;;;4935388;29;20361;-56
2022/08/12 13:12:56;;;;;;;2.97;1.30;;;28.80;47.00;;;;;;4936697;29;20027;-52
2022/08/12 13:15:22;;;;;;;4.93;1.63;;;28.90;46.30;;;;;;4935363;29;20030;-50
2022/08/12 13:17:52;;;;;;;4.93;1.40;;;29.00;46.00;;;;;;4951006;28;20020;-52
2022/08/12 13:20:19;;;;;;;4.80;1.43;;;29.00;46.10;;;;;;4936142;29;20023;-52
2022/08/12 13:22:46;;;;;;;2.30;1.13;;;29.00;46.20;;;;;;4934993;29;20055;-51
2022/08/12 13:25:14;;;;;;;4.80;1.60;;;29.10;46.20;;;;;;4951101;28;20063;-51
2022/08/12 13:27:44;;;;;;;1.58;1.15;;;29.20;46.40;;;;;;4950880;28;20065;-54
2022/08/12 13:30:14;;;;;;;2.95;1.25;;;29.10;45.80;;;;;;4950722;28;20031;-52
2022/08/12 13:32:45;;;;;;;1.80;1.57;;;28.90;46.40;;;;;;4936647;29;20031;-52
2022/08/12 13:35:11;;;;;;;;;;;29.00;46.00;;;;;;4936522;29;20390;-53
2022/08/12 13:37:39;;;;;;;1.33;1.10;;;29.00;45.90;;;;;;4951115;28;19941;-54
2022/08/12 13:40:06;;;;;;;5.40;1.25;;;29.10;46.40;;;;;;4935985;29;20034;-51
2022/08/12 13:42:31;;;;;;;5.97;1.40;;;29.00;45.30;;;;;;4935990;29;20028;-53
2022/08/12 13:44:57;;;;;;;5.15;1.27;;;28.90;45.50;;;;;;4935952;29;20111;-53
2022/08/12 13:47:23;;;;;;;2.95;1.30;;;28.90;46.00;;;;;;4950656;28;20024;-52
2022/08/12 13:49:50;;;;;;;3.88;1.25;;;29.10;45.90;;;;;;4950583;28;20024;-54
2022/08/12 13:52:17;;;;;;;2.60;1.00;;;29.20;45.80;;;;;;4950989;29;20070;-54
2022/08/12 13:54:45;;;;;;;4.47;1.10;;;29.30;45.70;;;;;;4950697;28;20067;-52
2022/08/12 13:57:13;;;;;;;5.47;1.33;;;29.40;45.70;;;;;;4937746;29;20027;-54
2022/08/12 13:59:40;;;;;;;2.17;0.85;;;29.20;45.30;;;;;;4939880;29;20028;-55
2022/08/12 14:02:11;;;;;;;2.92;1.25;;;29.00;45.50;;;;;;4939798;29;20083;-51
2022/08/12 14:04:38;;;;;;;;;;;28.90;45.70;;;;;;4940175;29;20027;-50
2022/08/12 14:07:05;;;;;;;4.72;1.30;;;28.70;45.60;;;;;;4939762;29;19934;-50
2022/08/12 14:10:34;;;;;;;5.05;1.38;;;28.60;46.30;;;;;;4954288;28;20031;-50
2022/08/12 14:12:17;;;;;;;4.75;1.40;;;28.70;45.90;;;;;;4939579;29;20114;-52
2022/08/12 14:14:49;;;;;;;5.53;1.45;;;28.60;46.10;;;;;;4939821;29;20027;-50
2022/08/12 14:17:15;;;;;;;3.50;1.02;;;28.80;46.10;;;;;;4939576;29;20020;-54
2022/08/12 14:20:12;;;;;;;8.27;2.10;;;28.80;45.80;;;;;;4955038;28;20034;-53
2022/08/12 14:22:27;;;;;;;3.55;1.30;;;28.90;46.00;;;;;;4939463;28;20028;-51
2022/08/12 14:24:52;;;;;;;3.08;1.40;;;29.00;45.70;;;;;;4954148;28;20513;-57
2022/08/12 14:27:18;;;;;;;6.68;1.30;;;29.00;46.00;;;;;;4954339;28;20040;-52
2022/08/12 14:29:45;;;;;;;4.28;1.20;;;28.90;45.80;;;;;;4954230;28;20031;-53
2022/08/12 14:32:11;;;;;;;3.03;1.00;;;28.80;46.20;;;;;;4954047;28;20051;-51
2022/08/12 14:34:36;;;;;;;2.25;1.20;;;28.80;45.80;;;;;;4953990;28;20083;-51
2022/08/12 14:37:05;;;;;;;2.17;1.20;;;28.90;46.10;;;;;;4937989;29;20028;-50
2022/08/12 14:39:31;;;;;;;1.42;1.00;;;29.00;45.90;;;;;;4939114;29;20024;-50
2022/08/12 14:41:57;;;;;;;1.75;1.25;;;29.10;45.80;;;;;;4939232;28;20038;-52
2022/08/12 14:44:23;;;;;;;7.65;1.50;;;29.30;46.00;;;;;;4953712;28;20023;-54
2022/08/12 14:46:56;;;;;;;5.78;1.55;;;29.30;46.10;;;;;;4953783;28;20032;-51
2022/08/12 14:49:22;;;;;;;5.07;1.58;;;29.20;45.90;;;;;;4954649;28;20036;-52
2022/08/12 14:51:47;;;;;;;9.55;2.25;;;29.10;46.00;;;;;;4938928;29;20159;-52
2022/08/12 14:54:13;;;;;;;5.78;1.25;;;29.00;46.30;;;;;;4938807;29;20082;-53
2022/08/12 14:56:40;;;;;;;4.10;1.73;;;29.00;46.30;;;;;;4938792;29;20513;-53